sensor_id;sensor_type;location;lat;lon;timestamp;P1;durP1;ratioP1;P2;durP2;ratioP2
1685;SDS011;840;47.980;7.830;2022-12-07T05:40:24;5.53;;;4.25;;
1685;SDS011;840;47.980;7.830;2022-12-07T05:42:53;5.00;;;4.23;;
1685;SDS011;840;47.980;7.830;2022-12-07T07:34:38;9.50;;;7.80;;
1685;SDS011;840;47.980;7.830;2022-12-07T07:37:48;8.97;;;6.40;;
1685;SDS011;840;47.980;7.830;2022-12-07T07:44:21;13.50;;;8.60;;
1685;SDS011;840;47.980;7.830;2022-12-07T07:47:30;12.77;;;7.30;;
1685;SDS011;840;47.980;7.830;2022-12-07T07:50:12;9.77;;;7.63;;
1685;SDS011;840;47.980;7.830;2022-12-07T07:53:02;11.77;;;5.83;;
1685;SDS011;840;47.980;7.830;2022-12-07T07:55:38;7.60;;;6.73;;
1685;SDS011;840;47.980;7.830;2022-12-07T07:58:33;9.37;;;6.57;;
1685;SDS011;840;47.980;7.830;2022-12-07T08:04:39;9.45;;;7.30;;
1685;SDS011;840;47.980;7.830;2022-12-07T08:14:03;4.53;;;3.97;;
1685;SDS011;840;47.980;7.830;2022-12-07T08:20:25;4.20;;;3.40;;
1685;SDS011;840;47.980;7.830;2022-12-07T08:23:00;6.03;;;3.10;;
1685;SDS011;840;47.980;7.830;2022-12-07T08:29:30;4.37;;;3.70;;
1685;SDS011;840;47.980;7.830;2022-12-07T08:32:20;3.40;;;3.10;;
1685;SDS011;840;47.980;7.830;2022-12-07T08:46:15;6.28;;;3.60;;
1685;SDS011;840;47.980;7.830;2022-12-07T08:48:48;5.60;;;3.60;;
1685;SDS011;840;47.980;7.830;2022-12-07T08:51:22;3.50;;;3.20;;
1685;SDS011;840;47.980;7.830;2022-12-07T08:54:06;3.20;;;2.90;;
1685;SDS011;840;47.980;7.830;2022-12-07T08:56:42;3.92;;;3.63;;
1685;SDS011;840;47.980;7.830;2022-12-07T08:59:17;4.07;;;3.57;;
1685;SDS011;840;47.980;7.830;2022-12-07T09:02:09;3.07;;;2.87;;
1685;SDS011;840;47.980;7.830;2022-12-07T09:04:36;7.53;;;4.17;;
1685;SDS011;840;47.980;7.830;2022-12-07T09:11:02;4.33;;;3.53;;
1685;SDS011;840;47.980;7.830;2022-12-07T09:26:49;6.32;;;5.55;;
1685;SDS011;840;47.980;7.830;2022-12-07T09:29:18;7.00;;;6.30;;
1685;SDS011;840;47.980;7.830;2022-12-07T09:31:45;6.07;;;5.47;;
1685;SDS011;840;47.980;7.830;2022-12-07T09:37:58;6.87;;;5.63;;
1685;SDS011;840;47.980;7.830;2022-12-07T09:40:28;6.53;;;5.83;;
1685;SDS011;840;47.980;7.830;2022-12-07T09:42:59;8.37;;;6.20;;
1685;SDS011;840;47.980;7.830;2022-12-07T09:45:49;6.43;;;5.83;;
1685;SDS011;840;47.980;7.830;2022-12-07T09:48:34;7.27;;;6.47;;
1685;SDS011;840;47.980;7.830;2022-12-07T09:51:24;7.63;;;5.70;;
1685;SDS011;840;47.980;7.830;2022-12-07T09:53:58;5.90;;;5.30;;
1685;SDS011;840;47.980;7.830;2022-12-07T09:59:54;4.87;;;4.47;;
1685;SDS011;840;47.980;7.830;2022-12-07T10:06:04;5.63;;;4.80;;
1685;SDS011;840;47.980;7.830;2022-12-07T10:13:01;4.30;;;3.90;;
1685;SDS011;840;47.980;7.830;2022-12-07T10:15:59;5.13;;;4.63;;
1685;SDS011;840;47.980;7.830;2022-12-07T10:18:44;5.22;;;4.70;;
1685;SDS011;840;47.980;7.830;2022-12-07T10:21:36;7.50;;;5.43;;
1685;SDS011;840;47.980;7.830;2022-12-07T10:24:16;4.47;;;4.13;;
1685;SDS011;840;47.980;7.830;2022-12-07T10:56:39;3.67;;;2.97;;
1685;SDS011;840;47.980;7.830;2022-12-07T10:59:28;3.47;;;3.17;;
1685;SDS011;840;47.980;7.830;2022-12-07T11:02:43;5.20;;;4.70;;
1685;SDS011;840;47.980;7.830;2022-12-07T11:06:03;4.00;;;3.60;;
1685;SDS011;840;47.980;7.830;2022-12-07T11:09:00;4.13;;;3.83;;
1685;SDS011;840;47.980;7.830;2022-12-07T11:12:04;4.00;;;3.60;;
1685;SDS011;840;47.980;7.830;2022-12-07T11:14:44;3.20;;;2.90;;
1685;SDS011;840;47.980;7.830;2022-12-07T11:17:19;4.43;;;3.97;;
1685;SDS011;840;47.980;7.830;2022-12-07T11:19:55;3.43;;;3.13;;
1685;SDS011;840;47.980;7.830;2022-12-07T11:22:34;4.20;;;3.77;;
1685;SDS011;840;47.980;7.830;2022-12-07T11:25:14;4.60;;;4.20;;
1685;SDS011;840;47.980;7.830;2022-12-07T11:30:51;4.90;;;3.37;;
1685;SDS011;840;47.980;7.830;2022-12-07T11:33:26;2.73;;;2.50;;
1685;SDS011;840;47.980;7.830;2022-12-07T11:39:28;3.30;;;3.00;;
1685;SDS011;840;47.980;7.830;2022-12-07T11:42:06;3.97;;;3.57;;
1685;SDS011;840;47.980;7.830;2022-12-07T11:47:16;3.60;;;3.23;;
1685;SDS011;840;47.980;7.830;2022-12-07T11:49:58;2.97;;;2.50;;
1685;SDS011;840;47.980;7.830;2022-12-07T13:10:52;5.80;;;5.20;;
1685;SDS011;840;47.980;7.830;2022-12-07T13:45:20;4.28;;;3.55;;
1685;SDS011;840;47.980;7.830;2022-12-07T13:48:14;5.93;;;4.00;;
1685;SDS011;840;47.980;7.830;2022-12-07T13:50:53;5.80;;;3.97;;
1685;SDS011;840;47.980;7.830;2022-12-07T13:53:20;6.70;;;3.80;;
1685;SDS011;840;47.980;7.830;2022-12-07T14:21:42;5.07;;;4.00;;
1685;SDS011;840;47.980;7.830;2022-12-07T14:24:28;4.30;;;3.90;;
1685;SDS011;840;47.980;7.830;2022-12-07T14:27:33;6.37;;;3.97;;
1685;SDS011;840;47.980;7.830;2022-12-07T14:34:59;3.37;;;3.07;;
1685;SDS011;840;47.980;7.830;2022-12-07T14:38:33;4.67;;;4.20;;
1685;SDS011;840;47.980;7.830;2022-12-07T14:44:35;2.60;;;2.40;;
1685;SDS011;840;47.980;7.830;2022-12-07T14:53:55;4.80;;;4.20;;
1685;SDS011;840;47.980;7.830;2022-12-07T14:56:35;5.53;;;4.20;;
1685;SDS011;840;47.980;7.830;2022-12-07T14:59:29;4.13;;;3.70;;
1685;SDS011;840;47.980;7.830;2022-12-07T15:16:03;5.23;;;3.60;;
1685;SDS011;840;47.980;7.830;2022-12-07T15:22:50;5.17;;;4.00;;
1685;SDS011;840;47.980;7.830;2022-12-07T15:29:47;7.30;;;6.00;;
1685;SDS011;840;47.980;7.830;2022-12-07T15:36:35;5.97;;;5.30;;
1685;SDS011;840;47.980;7.830;2022-12-07T15:39:18;8.83;;;7.00;;
1685;SDS011;840;47.980;7.830;2022-12-07T15:45:24;10.80;;;8.70;;
1685;SDS011;840;47.980;7.830;2022-12-07T15:48:13;18.17;;;10.70;;
1685;SDS011;840;47.980;7.830;2022-12-07T15:50:50;14.20;;;8.27;;
1685;SDS011;840;47.980;7.830;2022-12-07T15:53:57;11.50;;;8.90;;
1685;SDS011;840;47.980;7.830;2022-12-07T15:56:34;10.73;;;7.57;;
1685;SDS011;840;47.980;7.830;2022-12-07T15:59:03;9.20;;;7.37;;
1685;SDS011;840;47.980;7.830;2022-12-07T16:01:32;11.17;;;7.93;;
1685;SDS011;840;47.980;7.830;2022-12-07T16:04:00;7.13;;;6.40;;
1685;SDS011;840;47.980;7.830;2022-12-07T16:06:32;9.77;;;7.23;;
1685;SDS011;840;47.980;7.830;2022-12-07T16:26:42;7.07;;;6.37;;
1685;SDS011;840;47.980;7.830;2022-12-07T16:35:47;7.43;;;5.80;;
1685;SDS011;840;47.980;7.830;2022-12-07T16:38:22;8.90;;;7.60;;
1685;SDS011;840;47.980;7.830;2022-12-07T16:40:55;6.70;;;5.80;;
1685;SDS011;840;47.980;7.830;2022-12-07T16:43:27;10.73;;;6.33;;
1685;SDS011;840;47.980;7.830;2022-12-07T16:45:57;9.20;;;5.60;;
1685;SDS011;840;47.980;7.830;2022-12-07T16:48:36;6.27;;;3.97;;
1685;SDS011;840;47.980;7.830;2022-12-07T16:51:23;5.43;;;4.00;;
1685;SDS011;840;47.980;7.830;2022-12-07T16:53:53;8.33;;;5.23;;
1685;SDS011;840;47.980;7.830;2022-12-07T16:56:24;6.70;;;4.83;;
1685;SDS011;840;47.980;7.830;2022-12-07T16:59:00;5.60;;;5.03;;
1685;SDS011;840;47.980;7.830;2022-12-07T17:01:30;5.53;;;5.10;;
1685;SDS011;840;47.980;7.830;2022-12-07T17:03:59;4.53;;;4.13;;
1685;SDS011;840;47.980;7.830;2022-12-07T17:06:38;4.90;;;4.50;;
1685;SDS011;840;47.980;7.830;2022-12-07T17:09:19;5.90;;;4.53;;
1685;SDS011;840;47.980;7.830;2022-12-07T17:15:14;6.97;;;4.53;;
1685;SDS011;840;47.980;7.830;2022-12-07T17:18:35;4.90;;;4.40;;
1685;SDS011;840;47.980;7.830;2022-12-07T17:22:09;6.20;;;4.80;;
1685;SDS011;840;47.980;7.830;2022-12-07T17:25:21;7.70;;;5.63;;
1685;SDS011;840;47.980;7.830;2022-12-07T17:28:46;6.73;;;4.90;;
1685;SDS011;840;47.980;7.830;2022-12-07T17:31:36;5.13;;;4.70;;
1685;SDS011;840;47.980;7.830;2022-12-07T17:34:03;5.80;;;4.80;;
1685;SDS011;840;47.980;7.830;2022-12-07T17:36:31;6.60;;;5.40;;
1685;SDS011;840;47.980;7.830;2022-12-07T17:38:58;6.33;;;5.10;;
1685;SDS011;840;47.980;7.830;2022-12-07T17:41:34;5.30;;;3.80;;
1685;SDS011;840;47.980;7.830;2022-12-07T17:44:20;5.07;;;4.57;;
1685;SDS011;840;47.980;7.830;2022-12-07T17:46:49;6.40;;;4.40;;
1685;SDS011;840;47.980;7.830;2022-12-07T17:49:27;6.83;;;5.00;;
1685;SDS011;840;47.980;7.830;2022-12-07T17:52:53;5.20;;;4.53;;
1685;SDS011;840;47.980;7.830;2022-12-07T18:15:27;5.83;;;4.30;;
1685;SDS011;840;47.980;7.830;2022-12-07T18:17:56;5.63;;;5.07;;
1685;SDS011;840;47.980;7.830;2022-12-07T18:20:27;7.87;;;4.87;;
1685;SDS011;840;47.980;7.830;2022-12-07T18:22:54;5.87;;;4.90;;
1685;SDS011;840;47.980;7.830;2022-12-07T18:25:21;5.30;;;4.80;;
1685;SDS011;840;47.980;7.830;2022-12-07T18:27:48;6.70;;;5.33;;
1685;SDS011;840;47.980;7.830;2022-12-07T18:30:19;6.70;;;5.20;;
1685;SDS011;840;47.980;7.830;2022-12-07T18:32:47;5.57;;;4.27;;
1685;SDS011;840;47.980;7.830;2022-12-07T18:35:15;4.83;;;3.97;;
1685;SDS011;840;47.980;7.830;2022-12-07T18:37:42;6.83;;;5.77;;
1685;SDS011;840;47.980;7.830;2022-12-07T18:40:11;5.90;;;4.90;;
1685;SDS011;840;47.980;7.830;2022-12-07T18:43:03;6.33;;;4.63;;
1685;SDS011;840;47.980;7.830;2022-12-07T18:45:53;5.40;;;4.90;;
1685;SDS011;840;47.980;7.830;2022-12-07T18:52:15;6.97;;;4.60;;
1685;SDS011;840;47.980;7.830;2022-12-07T18:58:35;5.83;;;4.63;;
1685;SDS011;840;47.980;7.830;2022-12-07T19:01:25;7.53;;;5.87;;
1685;SDS011;840;47.980;7.830;2022-12-07T19:03:54;6.27;;;5.70;;
1685;SDS011;840;47.980;7.830;2022-12-07T19:06:24;9.27;;;4.67;;
1685;SDS011;840;47.980;7.830;2022-12-07T19:09:35;6.40;;;4.87;;
1685;SDS011;840;47.980;7.830;2022-12-07T19:12:02;4.90;;;4.03;;
1685;SDS011;840;47.980;7.830;2022-12-07T19:31:35;5.97;;;5.37;;
1685;SDS011;840;47.980;7.830;2022-12-07T19:34:13;5.40;;;4.90;;
1685;SDS011;840;47.980;7.830;2022-12-07T19:37:17;7.70;;;5.00;;
1685;SDS011;840;47.980;7.830;2022-12-07T19:39:47;6.43;;;4.70;;
1685;SDS011;840;47.980;7.830;2022-12-07T19:42:15;5.07;;;4.20;;
1685;SDS011;840;47.980;7.830;2022-12-07T19:44:42;4.50;;;4.10;;
1685;SDS011;840;47.980;7.830;2022-12-07T19:47:11;5.57;;;5.07;;
1685;SDS011;840;47.980;7.830;2022-12-07T19:49:41;9.17;;;7.10;;
1685;SDS011;840;47.980;7.830;2022-12-07T19:52:11;5.27;;;4.77;;
1685;SDS011;840;47.980;7.830;2022-12-07T19:54:38;4.03;;;3.70;;
1685;SDS011;840;47.980;7.830;2022-12-07T19:57:05;3.83;;;3.23;;
1685;SDS011;840;47.980;7.830;2022-12-07T19:59:39;5.20;;;3.60;;
1685;SDS011;840;47.980;7.830;2022-12-07T20:02:08;6.10;;;4.77;;
1685;SDS011;840;47.980;7.830;2022-12-07T20:04:39;7.50;;;5.00;;
1685;SDS011;840;47.980;7.830;2022-12-07T20:07:06;7.27;;;5.17;;
1685;SDS011;840;47.980;7.830;2022-12-07T20:09:33;5.93;;;5.03;;
1685;SDS011;840;47.980;7.830;2022-12-07T20:12:00;5.73;;;5.13;;
1685;SDS011;840;47.980;7.830;2022-12-07T20:14:44;6.53;;;4.93;;
1685;SDS011;840;47.980;7.830;2022-12-07T20:17:13;5.97;;;4.90;;
1685;SDS011;840;47.980;7.830;2022-12-07T20:19:40;6.20;;;5.00;;
1685;SDS011;840;47.980;7.830;2022-12-07T20:22:07;7.30;;;5.60;;
1685;SDS011;840;47.980;7.830;2022-12-07T20:24:34;6.60;;;5.60;;
1685;SDS011;840;47.980;7.830;2022-12-07T20:27:01;5.43;;;4.90;;
1685;SDS011;840;47.980;7.830;2022-12-07T20:29:29;6.23;;;5.10;;
1685;SDS011;840;47.980;7.830;2022-12-07T20:31:56;9.13;;;6.17;;
1685;SDS011;840;47.980;7.830;2022-12-07T20:34:25;6.03;;;5.07;;
1685;SDS011;840;47.980;7.830;2022-12-07T20:36:52;5.97;;;5.37;;
1685;SDS011;840;47.980;7.830;2022-12-07T20:39:19;8.13;;;5.63;;
1685;SDS011;840;47.980;7.830;2022-12-07T20:41:47;7.37;;;5.93;;
1685;SDS011;840;47.980;7.830;2022-12-07T20:44:32;6.33;;;4.97;;
1685;SDS011;840;47.980;7.830;2022-12-07T20:47:00;5.00;;;4.47;;
1685;SDS011;840;47.980;7.830;2022-12-07T20:49:38;7.13;;;4.30;;
1685;SDS011;840;47.980;7.830;2022-12-07T20:52:07;7.23;;;5.73;;
1685;SDS011;840;47.980;7.830;2022-12-07T20:54:34;5.27;;;4.87;;
1685;SDS011;840;47.980;7.830;2022-12-07T20:57:01;4.90;;;4.30;;
1685;SDS011;840;47.980;7.830;2022-12-07T20:59:29;4.57;;;4.17;;
1685;SDS011;840;47.980;7.830;2022-12-07T21:01:56;5.90;;;5.27;;
1685;SDS011;840;47.980;7.830;2022-12-07T21:04:23;4.13;;;3.73;;
1685;SDS011;840;47.980;7.830;2022-12-07T21:07:29;5.10;;;4.57;;
1685;SDS011;840;47.980;7.830;2022-12-07T21:14:26;5.83;;;4.67;;
1685;SDS011;840;47.980;7.830;2022-12-07T21:16:54;7.07;;;4.87;;
1685;SDS011;840;47.980;7.830;2022-12-07T21:19:20;8.13;;;5.00;;
1685;SDS011;840;47.980;7.830;2022-12-07T21:25:17;4.90;;;3.90;;
1685;SDS011;840;47.980;7.830;2022-12-07T21:27:49;5.87;;;4.57;;
1685;SDS011;840;47.980;7.830;2022-12-07T21:30:18;6.50;;;4.80;;
1685;SDS011;840;47.980;7.830;2022-12-07T21:32:45;5.77;;;4.63;;
1685;SDS011;840;47.980;7.830;2022-12-07T21:35:12;5.17;;;4.20;;
1685;SDS011;840;47.980;7.830;2022-12-07T21:37:48;5.60;;;4.07;;
1685;SDS011;840;47.980;7.830;2022-12-07T21:40:15;4.53;;;4.13;;
1685;SDS011;840;47.980;7.830;2022-12-07T21:42:44;4.97;;;4.10;;
1685;SDS011;840;47.980;7.830;2022-12-07T21:45:22;3.93;;;3.10;;
